sensor_id;sensor_type;location;lat;lon;timestamp;pressure;altitude;pressure_sealevel;temperature;humidity
22753;BME280;11543;43.144;24.684;2023-06-10T00:01:32;98288.34;;;18.72;63.65
22753;BME280;11543;43.144;24.684;2023-06-10T00:03:59;98289.97;;;18.80;63.91
22753;BME280;11543;43.144;24.684;2023-06-10T00:06:24;98285.91;;;18.64;63.81
22753;BME280;11543;43.144;24.684;2023-06-10T00:08:51;98292.63;;;18.55;64.10
22753;BME280;11543;43.144;24.684;2023-06-10T00:11:16;98315.59;;;18.59;64.18
22753;BME280;11543;43.144;24.684;2023-06-10T00:13:42;98307.25;;;18.54;64.62
22753;BME280;11543;43.144;24.684;2023-06-10T00:16:08;98293.91;;;18.52;64.84
22753;BME280;11543;43.144;24.684;2023-06-10T00:18:33;98303.44;;;18.68;64.93
22753;BME280;11543;43.144;24.684;2023-06-10T00:21:02;98314.31;;;18.93;64.30
22753;BME280;11543;43.144;24.684;2023-06-10T00:23:30;98299.22;;;18.97;63.96
22753;BME280;11543;43.144;24.684;2023-06-10T00:26:02;98299.78;;;19.05;63.67
22753;BME280;11543;43.144;24.684;2023-06-10T00:28:28;98297.25;;;19.11;63.37
22753;BME280;11543;43.144;24.684;2023-06-10T00:30:53;98308.00;;;19.24;62.98
22753;BME280;11543;43.144;24.684;2023-06-10T00:33:19;98297.75;;;19.26;62.66
22753;BME280;11543;43.144;24.684;2023-06-10T00:35:44;98306.66;;;19.33;62.21
22753;BME280;11543;43.144;24.684;2023-06-10T00:38:10;98289.97;;;19.29;62.14
22753;BME280;11543;43.144;24.684;2023-06-10T00:40:39;98310.91;;;19.47;62.02
22753;BME280;11543;43.144;24.684;2023-06-10T00:43:06;98290.06;;;19.41;61.76
22753;BME280;11543;43.144;24.684;2023-06-10T00:45:33;98283.41;;;19.37;61.54
22753;BME280;11543;43.144;24.684;2023-06-10T00:48:00;98312.31;;;19.56;61.14
22753;BME280;11543;43.144;24.684;2023-06-10T00:50:27;98279.00;;;19.36;61.45
22753;BME280;11543;43.144;24.684;2023-06-10T00:52:53;98310.66;;;19.55;61.49
22753;BME280;11543;43.144;24.684;2023-06-10T00:55:20;98310.69;;;19.49;61.39
22753;BME280;11543;43.144;24.684;2023-06-10T00:57:46;98300.00;;;19.29;61.76
22753;BME280;11543;43.144;24.684;2023-06-10T01:00:14;98309.34;;;19.15;62.34
22753;BME280;11543;43.144;24.684;2023-06-10T01:02:41;98305.50;;;18.97;62.57
22753;BME280;11543;43.144;24.684;2023-06-10T01:05:08;98325.41;;;18.91;63.00
22753;BME280;11543;43.144;24.684;2023-06-10T01:10:20;98319.78;;;18.61;64.26
22753;BME280;11543;43.144;24.684;2023-06-10T01:13:01;98316.00;;;18.62;64.77
22753;BME280;11543;43.144;24.684;2023-06-10T01:15:34;98313.69;;;18.66;64.72
22753;BME280;11543;43.144;24.684;2023-06-10T01:18:02;98316.13;;;18.74;64.55
22753;BME280;11543;43.144;24.684;2023-06-10T01:20:29;98321.91;;;18.84;64.16
22753;BME280;11543;43.144;24.684;2023-06-10T01:22:55;98316.19;;;18.92;63.77
22753;BME280;11543;43.144;24.684;2023-06-10T01:25:23;98317.31;;;18.85;63.51
22753;BME280;11543;43.144;24.684;2023-06-10T01:28:17;98331.19;;;19.01;63.30
22753;BME280;11543;43.144;24.684;2023-06-10T01:34:00;98319.09;;;18.97;63.24
22753;BME280;11543;43.144;24.684;2023-06-10T01:36:28;98306.56;;;18.96;63.16
22753;BME280;11543;43.144;24.684;2023-06-10T01:38:55;98309.44;;;19.01;62.88
22753;BME280;11543;43.144;24.684;2023-06-10T01:41:22;98325.50;;;19.09;62.49
22753;BME280;11543;43.144;24.684;2023-06-10T01:43:48;98319.44;;;19.07;62.42
22753;BME280;11543;43.144;24.684;2023-06-10T01:46:15;98305.66;;;19.02;62.37
22753;BME280;11543;43.144;24.684;2023-06-10T01:48:44;98304.44;;;18.98;62.33
22753;BME280;11543;43.144;24.684;2023-06-10T01:51:10;98319.00;;;19.11;62.11
22753;BME280;11543;43.144;24.684;2023-06-10T01:53:35;98321.13;;;19.08;62.04
22753;BME280;11543;43.144;24.684;2023-06-10T01:56:01;98316.50;;;19.09;62.08
22753;BME280;11543;43.144;24.684;2023-06-10T01:58:26;98326.09;;;19.12;62.17
22753;BME280;11543;43.144;24.684;2023-06-10T02:00:52;98316.94;;;19.06;62.27
22753;BME280;11543;43.144;24.684;2023-06-10T02:03:17;98305.28;;;18.99;62.14
22753;BME280;11543;43.144;24.684;2023-06-10T02:05:43;98309.88;;;18.98;62.06
22753;BME280;11543;43.144;24.684;2023-06-10T02:08:09;98321.13;;;19.08;61.81
22753;BME280;11543;43.144;24.684;2023-06-10T02:10:34;98315.69;;;19.08;61.79
22753;BME280;11543;43.144;24.684;2023-06-10T02:13:00;98315.03;;;19.06;61.78
22753;BME280;11543;43.144;24.684;2023-06-10T02:15:25;98319.22;;;19.09;61.67
22753;BME280;11543;43.144;24.684;2023-06-10T02:17:52;98336.88;;;19.25;61.55
22753;BME280;11543;43.144;24.684;2023-06-10T02:20:18;98326.50;;;19.15;61.69
22753;BME280;11543;43.144;24.684;2023-06-10T02:22:44;98334.88;;;19.14;61.32
22753;BME280;11543;43.144;24.684;2023-06-10T02:25:09;98337.16;;;19.17;61.74
22753;BME280;11543;43.144;24.684;2023-06-10T02:27:35;98321.94;;;19.09;61.45
22753;BME280;11543;43.144;24.684;2023-06-10T02:30:01;98329.44;;;19.14;61.24
22753;BME280;11543;43.144;24.684;2023-06-10T02:32:26;98331.53;;;19.12;61.68
22753;BME280;11543;43.144;24.684;2023-06-10T02:34:52;98327.16;;;19.11;61.65
22753;BME280;11543;43.144;24.684;2023-06-10T02:37:18;98330.03;;;19.16;62.16
22753;BME280;11543;43.144;24.684;2023-06-10T02:39:44;98335.81;;;19.26;61.67
22753;BME280;11543;43.144;24.684;2023-06-10T02:42:09;98333.31;;;19.24;61.41
22753;BME280;11543;43.144;24.684;2023-06-10T02:44:35;98320.78;;;19.23;61.22
22753;BME280;11543;43.144;24.684;2023-06-10T02:47:01;98328.88;;;19.30;61.53
22753;BME280;11543;43.144;24.684;2023-06-10T02:49:26;98322.59;;;19.29;61.81
22753;BME280;11543;43.144;24.684;2023-06-10T02:51:55;98334.47;;;19.35;61.64
22753;BME280;11543;43.144;24.684;2023-06-10T02:54:22;98345.91;;;19.44;61.70
22753;BME280;11543;43.144;24.684;2023-06-10T02:56:48;98342.19;;;19.38;61.81
22753;BME280;11543;43.144;24.684;2023-06-10T02:59:14;98335.97;;;19.31;62.22
22753;BME280;11543;43.144;24.684;2023-06-10T03:01:40;98340.19;;;19.27;62.57
22753;BME280;11543;43.144;24.684;2023-06-10T03:04:06;98325.66;;;19.15;63.06
22753;BME280;11543;43.144;24.684;2023-06-10T03:06:32;98346.41;;;19.34;62.86
22753;BME280;11543;43.144;24.684;2023-06-10T03:09:00;98331.16;;;19.33;62.79
22753;BME280;11543;43.144;24.684;2023-06-10T03:11:25;98352.94;;;19.51;62.92
22753;BME280;11543;43.144;24.684;2023-06-10T03:13:51;98340.84;;;19.47;63.02
22753;BME280;11543;43.144;24.684;2023-06-10T03:16:19;98332.06;;;19.45;62.88
22753;BME280;11543;43.144;24.684;2023-06-10T03:18:44;98334.53;;;19.53;62.73
22753;BME280;11543;43.144;24.684;2023-06-10T03:21:10;98324.91;;;19.51;62.35
22753;BME280;11543;43.144;24.684;2023-06-10T03:23:35;98343.16;;;19.68;62.66
22753;BME280;11543;43.144;24.684;2023-06-10T03:26:01;98343.16;;;19.68;62.74
22753;BME280;11543;43.144;24.684;2023-06-10T03:28:27;98343.31;;;19.73;62.70
22753;BME280;11543;43.144;24.684;2023-06-10T03:30:52;98347.25;;;19.78;62.79
22753;BME280;11543;43.144;24.684;2023-06-10T03:33:17;98322.59;;;19.72;62.87
22753;BME280;11543;43.144;24.684;2023-06-10T03:35:43;98327.00;;;19.73;63.05
22753;BME280;11543;43.144;24.684;2023-06-10T03:38:08;98317.53;;;19.76;63.10
22753;BME280;11543;43.144;24.684;2023-06-10T03:40:34;98328.81;;;19.80;62.93
22753;BME280;11543;43.144;24.684;2023-06-10T03:43:00;98333.72;;;19.89;62.64
22753;BME280;11543;43.144;24.684;2023-06-10T03:45:26;98326.97;;;19.92;62.67
22753;BME280;11543;43.144;24.684;2023-06-10T03:47:53;98329.44;;;20.00;62.48
22753;BME280;11543;43.144;24.684;2023-06-10T03:50:19;98347.72;;;20.11;62.54
22753;BME280;11543;43.144;24.684;2023-06-10T03:52:45;98338.03;;;20.15;62.39
22753;BME280;11543;43.144;24.684;2023-06-10T03:55:12;98338.03;;;20.15;62.22
22753;BME280;11543;43.144;24.684;2023-06-10T03:57:39;98328.44;;;20.13;62.06
22753;BME280;11543;43.144;24.684;2023-06-10T04:00:07;98350.44;;;20.29;62.26
22753;BME280;11543;43.144;24.684;2023-06-10T04:02:36;98358.50;;;20.36;62.16
22753;BME280;11543;43.144;24.684;2023-06-10T04:05:02;98341.66;;;20.27;62.49
22753;BME280;11543;43.144;24.684;2023-06-10T04:07:28;98342.41;;;20.34;62.59
22753;BME280;11543;43.144;24.684;2023-06-10T04:09:53;98349.06;;;20.39;62.61
22753;BME280;11543;43.144;24.684;2023-06-10T04:12:19;98348.31;;;20.31;64.58
22753;BME280;11543;43.144;24.684;2023-06-10T04:14:44;98349.50;;;20.35;63.90
22753;BME280;11543;43.144;24.684;2023-06-10T04:17:10;98350.28;;;20.43;63.82
22753;BME280;11543;43.144;24.684;2023-06-10T04:19:36;98364.78;;;20.55;64.06
22753;BME280;11543;43.144;24.684;2023-06-10T04:22:01;98350.56;;;20.53;63.78
22753;BME280;11543;43.144;24.684;2023-06-10T04:24:28;98353.66;;;20.56;64.02
22753;BME280;11543;43.144;24.684;2023-06-10T04:26:54;98364.47;;;20.63;64.41
22753;BME280;11543;43.144;24.684;2023-06-10T04:29:19;98343.16;;;20.42;68.26
22753;BME280;11543;43.144;24.684;2023-06-10T04:31:46;98361.47;;;20.53;68.91
22753;BME280;11543;43.144;24.684;2023-06-10T04:34:12;98358.47;;;20.43;71.03
22753;BME280;11543;43.144;24.684;2023-06-10T04:36:38;98357.66;;;20.54;69.96
22753;BME280;11543;43.144;24.684;2023-06-10T04:39:03;98364.94;;;20.60;69.90
22753;BME280;11543;43.144;24.684;2023-06-10T04:41:31;98367.94;;;20.70;69.93
22753;BME280;11543;43.144;24.684;2023-06-10T04:43:57;98368.38;;;20.67;70.17
22753;BME280;11543;43.144;24.684;2023-06-10T04:46:23;98367.94;;;20.70;69.68
22753;BME280;11543;43.144;24.684;2023-06-10T05:01:01;98373.94;;;21.44;67.35
22753;BME280;11543;43.144;24.684;2023-06-10T05:03:27;98383.31;;;21.36;67.94
22753;BME280;11543;43.144;24.684;2023-06-10T05:05:52;98373.06;;;21.20;68.50
22753;BME280;11543;43.144;24.684;2023-06-10T05:08:18;98374.38;;;21.17;68.47
22753;BME280;11543;43.144;24.684;2023-06-10T05:10:43;98376.13;;;21.12;68.63
22753;BME280;11543;43.144;24.684;2023-06-10T05:13:09;98374.69;;;21.09;68.73
22753;BME280;11543;43.144;24.684;2023-06-10T05:15:34;98389.03;;;21.05;68.73
22753;BME280;11543;43.144;24.684;2023-06-10T05:18:00;98378.00;;;20.99;69.01
22753;BME280;11543;43.144;24.684;2023-06-10T05:20:27;98380.13;;;20.97;69.10
22753;BME280;11543;43.144;24.684;2023-06-10T05:22:54;98381.19;;;20.96;68.98
22753;BME280;11543;43.144;24.684;2023-06-10T05:25:21;98377.75;;;20.89;68.99
22753;BME280;11543;43.144;24.684;2023-06-10T05:27:46;98370.63;;;20.88;68.77
22753;BME280;11543;43.144;24.684;2023-06-10T05:30:12;98376.91;;;20.89;68.93
22753;BME280;11543;43.144;24.684;2023-06-10T05:32:37;98366.84;;;20.89;69.05
22753;BME280;11543;43.144;24.684;2023-06-10T05:35:04;98363.50;;;20.87;69.17
22753;BME280;11543;43.144;24.684;2023-06-10T05:37:33;98368.50;;;20.90;68.98
22753;BME280;11543;43.144;24.684;2023-06-10T05:39:58;98359.13;;;20.86;68.76
22753;BME280;11543;43.144;24.684;2023-06-10T05:42:24;98375.16;;;20.94;68.86
22753;BME280;11543;43.144;24.684;2023-06-10T05:44:49;98383.00;;;21.03;68.76
22753;BME280;11543;43.144;24.684;2023-06-10T05:47:16;98377.06;;;21.06;68.83
22753;BME280;11543;43.144;24.684;2023-06-10T05:49:42;98376.59;;;21.09;68.84
22753;BME280;11543;43.144;24.684;2023-06-10T05:52:07;98366.06;;;21.12;69.12
22753;BME280;11543;43.144;24.684;2023-06-10T05:54:33;98370.22;;;21.15;69.33
22753;BME280;11543;43.144;24.684;2023-06-10T05:56:59;98372.94;;;21.15;70.00
22753;BME280;11543;43.144;24.684;2023-06-10T05:59:25;98374.72;;;21.21;70.25
22753;BME280;11543;43.144;24.684;2023-06-10T06:01:50;98380.47;;;21.31;70.40
22753;BME280;11543;43.144;24.684;2023-06-10T06:04:16;98374.53;;;21.34;71.04
22753;BME280;11543;43.144;24.684;2023-06-10T06:06:42;98380.25;;;21.44;70.87
22753;BME280;11543;43.144;24.684;2023-06-10T06:09:07;98378.00;;;21.53;70.64
22753;BME280;11543;43.144;24.684;2023-06-10T06:11:34;98377.41;;;21.62;70.34
22753;BME280;11543;43.144;24.684;2023-06-10T06:14:00;98372.66;;;21.70;70.24
22753;BME280;11543;43.144;24.684;2023-06-10T06:16:26;98370.06;;;21.75;70.16
22753;BME280;11543;43.144;24.684;2023-06-10T06:18:51;98370.53;;;21.83;70.08
22753;BME280;11543;43.144;24.684;2023-06-10T06:21:17;98368.03;;;21.93;70.71
22753;BME280;11543;43.144;24.684;2023-06-10T06:23:42;98380.38;;;22.08;71.32
22753;BME280;11543;43.144;24.684;2023-06-10T06:26:08;98381.91;;;22.15;71.76
22753;BME280;11543;43.144;24.684;2023-06-10T06:28:33;98370.72;;;22.29;72.20
22753;BME280;11543;43.144;24.684;2023-06-10T06:30:59;98373.06;;;22.37;72.00
22753;BME280;11543;43.144;24.684;2023-06-10T06:33:25;98361.63;;;22.40;71.67
22753;BME280;11543;43.144;24.684;2023-06-10T06:35:51;98369.09;;;22.56;71.71
22753;BME280;11543;43.144;24.684;2023-06-10T06:38:18;98350.63;;;22.63;71.58
22753;BME280;11543;43.144;24.684;2023-06-10T06:40:44;98358.19;;;22.84;71.33
22753;BME280;11543;43.144;24.684;2023-06-10T06:43:09;98361.19;;;23.00;71.17
22753;BME280;11543;43.144;24.684;2023-06-10T06:45:35;98345.44;;;23.07;71.54
22753;BME280;11543;43.144;24.684;2023-06-10T06:48:00;98354.56;;;23.29;72.32
22753;BME280;11543;43.144;24.684;2023-06-10T06:50:26;98344.97;;;23.43;71.23
22753;BME280;11543;43.144;24.684;2023-06-10T06:52:51;98345.13;;;23.54;70.79
22753;BME280;11543;43.144;24.684;2023-06-10T06:55:17;98337.16;;;23.69;69.98
22753;BME280;11543;43.144;24.684;2023-06-10T06:57:43;98338.44;;;23.83;69.10
22753;BME280;11543;43.144;24.684;2023-06-10T07:00:08;98364.28;;;24.09;68.05
22753;BME280;11543;43.144;24.684;2023-06-10T07:02:35;98358.69;;;24.21;67.45
22753;BME280;11543;43.144;24.684;2023-06-10T07:05:01;98363.28;;;24.32;66.87
22753;BME280;11543;43.144;24.684;2023-06-10T07:07:26;98347.97;;;24.36;66.27
22753;BME280;11543;43.144;24.684;2023-06-10T07:09:52;98359.09;;;24.51;65.80
22753;BME280;11543;43.144;24.684;2023-06-10T07:12:18;98349.28;;;24.55;64.67
22753;BME280;11543;43.144;24.684;2023-06-10T07:14:44;98358.81;;;24.74;64.01
22753;BME280;11543;43.144;24.684;2023-06-10T07:17:09;98352.34;;;24.86;63.36
22753;BME280;11543;43.144;24.684;2023-06-10T07:19:35;98353.13;;;25.08;63.31
22753;BME280;11543;43.144;24.684;2023-06-10T07:22:01;98345.53;;;25.15;63.63
22753;BME280;11543;43.144;24.684;2023-06-10T07:24:26;98355.84;;;25.35;63.16
22753;BME280;11543;43.144;24.684;2023-06-10T07:26:52;98355.19;;;25.55;61.80
22753;BME280;11543;43.144;24.684;2023-06-10T07:29:18;98346.84;;;25.77;61.11
22753;BME280;11543;43.144;24.684;2023-06-10T07:34:19;98347.25;;;26.00;58.87
22753;BME280;11543;43.144;24.684;2023-06-10T07:36:45;98342.09;;;26.09;57.83
22753;BME280;11543;43.144;24.684;2023-06-10T07:39:10;98338.31;;;26.25;56.75
22753;BME280;11543;43.144;24.684;2023-06-10T07:41:36;98351.34;;;26.40;57.02
22753;BME280;11543;43.144;24.684;2023-06-10T07:44:01;98349.19;;;26.52;55.24
22753;BME280;11543;43.144;24.684;2023-06-10T07:46:27;98346.44;;;26.62;55.16
22753;BME280;11543;43.144;24.684;2023-06-10T07:48:53;98338.75;;;26.59;55.55
22753;BME280;11543;43.144;24.684;2023-06-10T07:51:19;98336.59;;;26.82;53.48
22753;BME280;11543;43.144;24.684;2023-06-10T07:53:44;98347.41;;;26.99;52.22
22753;BME280;11543;43.144;24.684;2023-06-10T07:56:11;98338.56;;;26.96;52.93
22753;BME280;11543;43.144;24.684;2023-06-10T07:58:36;98339.38;;;26.97;52.71
22753;BME280;11543;43.144;24.684;2023-06-10T08:01:02;98349.88;;;27.00;53.29
22753;BME280;11543;43.144;24.684;2023-06-10T08:03:27;98344.38;;;27.00;53.51
22753;BME280;11543;43.144;24.684;2023-06-10T08:05:53;98346.03;;;27.01;52.71
22753;BME280;11543;43.144;24.684;2023-06-10T08:08:19;98341.06;;;27.08;51.83
22753;BME280;11543;43.144;24.684;2023-06-10T08:10:44;98348.78;;;27.06;52.57
22753;BME280;11543;43.144;24.684;2023-06-10T08:13:10;98337.50;;;27.03;51.89
22753;BME280;11543;43.144;24.684;2023-06-10T08:15:35;98344.66;;;27.14;52.25
22753;BME280;11543;43.144;24.684;2023-06-10T08:18:01;98331.72;;;27.09;53.45
22753;BME280;11543;43.144;24.684;2023-06-10T08:20:26;98343.84;;;27.23;51.93
22753;BME280;11543;43.144;24.684;2023-06-10T08:22:52;98339.97;;;27.35;51.56
22753;BME280;11543;43.144;24.684;2023-06-10T08:25:18;98338.31;;;27.49;51.06
22753;BME280;11543;43.144;24.684;2023-06-10T08:27:43;98332.25;;;27.47;51.53
22753;BME280;11543;43.144;24.684;2023-06-10T08:30:09;98336.66;;;27.58;51.71
22753;BME280;11543;43.144;24.684;2023-06-10T08:32:36;98334.47;;;27.75;51.35
22753;BME280;11543;43.144;24.684;2023-06-10T08:35:02;98335.56;;;27.84;50.04
22753;BME280;11543;43.144;24.684;2023-06-10T08:37:28;98337.75;;;27.87;50.44
22753;BME280;11543;43.144;24.684;2023-06-10T08:39:53;98335.53;;;27.95;48.57
22753;BME280;11543;43.144;24.684;2023-06-10T08:42:24;98333.03;;;27.98;49.37
22753;BME280;11543;43.144;24.684;2023-06-10T08:44:55;98338.81;;;28.02;49.97
22753;BME280;11543;43.144;24.684;2023-06-10T08:47:22;98340.44;;;28.13;49.32
22753;BME280;11543;43.144;24.684;2023-06-10T08:49:48;98341.78;;;28.31;47.79
22753;BME280;11543;43.144;24.684;2023-06-10T08:52:16;98326.56;;;28.38;48.38
22753;BME280;11543;43.144;24.684;2023-06-10T09:06:37;98318.25;;;29.32;46.77
22753;BME280;11543;43.144;24.684;2023-06-10T09:09:05;98312.22;;;29.25;47.11
22753;BME280;11543;43.144;24.684;2023-06-10T09:11:31;98304.44;;;29.32;46.67
22753;BME280;11543;43.144;24.684;2023-06-10T09:13:57;98311.53;;;29.43;46.25
22753;BME280;11543;43.144;24.684;2023-06-10T09:16:24;98298.97;;;29.61;45.42
22753;BME280;11543;43.144;24.684;2023-06-10T09:18:50;98296.50;;;29.59;45.97
22753;BME280;11543;43.144;24.684;2023-06-10T09:21:24;98304.63;;;29.74;46.28
22753;BME280;11543;43.144;24.684;2023-06-10T09:23:50;98302.34;;;29.82;45.03
22753;BME280;11543;43.144;24.684;2023-06-10T09:26:16;98289.44;;;29.96;45.21
22753;BME280;11543;43.144;24.684;2023-06-10T09:28:44;98289.56;;;30.33;43.16
22753;BME280;11543;43.144;24.684;2023-06-10T09:31:11;98284.09;;;30.71;43.41
22753;BME280;11543;43.144;24.684;2023-06-10T09:33:38;98284.97;;;30.85;40.36
22753;BME280;11543;43.144;24.684;2023-06-10T09:36:07;98289.00;;;31.12;39.13
22753;BME280;11543;43.144;24.684;2023-06-10T09:38:34;98290.75;;;31.26;41.56
22753;BME280;11543;43.144;24.684;2023-06-10T09:41:00;98287.69;;;31.42;40.47
22753;BME280;11543;43.144;24.684;2023-06-10T09:43:47;98291.16;;;31.80;36.45
22753;BME280;11543;43.144;24.684;2023-06-10T09:46:23;98268.25;;;31.88;34.89
22753;BME280;11543;43.144;24.684;2023-06-10T09:48:59;98294.28;;;32.19;35.12
22753;BME280;11543;43.144;24.684;2023-06-10T09:51:25;98293.59;;;32.27;36.24
22753;BME280;11543;43.144;24.684;2023-06-10T09:53:51;98279.28;;;32.20;34.94
22753;BME280;11543;43.144;24.684;2023-06-10T09:56:17;98284.94;;;32.29;35.36
22753;BME280;11543;43.144;24.684;2023-06-10T09:58:45;98290.47;;;32.43;35.37
22753;BME280;11543;43.144;24.684;2023-06-10T10:01:13;98262.19;;;32.41;36.11
22753;BME280;11543;43.144;24.684;2023-06-10T10:03:51;98266.84;;;32.32;34.54
22753;BME280;11543;43.144;24.684;2023-06-10T10:06:18;98278.16;;;32.21;35.13
22753;BME280;11543;43.144;24.684;2023-06-10T10:08:46;98269.69;;;31.99;36.50
22753;BME280;11543;43.144;24.684;2023-06-10T10:11:14;98273.19;;;31.91;37.19
22753;BME280;11543;43.144;24.684;2023-06-10T10:16:52;98256.28;;;31.46;37.09
22753;BME280;11543;43.144;24.684;2023-06-10T10:33:33;98267.94;;;31.76;35.62
22753;BME280;11543;43.144;24.684;2023-06-10T10:36:07;98255.53;;;31.87;35.42
22753;BME280;11543;43.144;24.684;2023-06-10T10:39:04;98256.16;;;32.11;35.32
22753;BME280;11543;43.144;24.684;2023-06-10T12:07:44;98145.38;;;36.78;25.93
22753;BME280;11543;43.144;24.684;2023-06-10T12:10:09;98131.47;;;36.48;27.18
22753;BME280;11543;43.144;24.684;2023-06-10T12:12:35;98149.94;;;36.61;26.64
22753;BME280;11543;43.144;24.684;2023-06-10T12:15:02;98144.59;;;36.68;25.47
22753;BME280;11543;43.144;24.684;2023-06-10T12:19:59;98139.47;;;36.91;26.32
22753;BME280;11543;43.144;24.684;2023-06-10T12:22:25;98138.41;;;36.84;26.29
22753;BME280;11543;43.144;24.684;2023-06-10T12:24:59;98133.69;;;36.76;26.47
22753;BME280;11543;43.144;24.684;2023-06-10T12:27:25;98133.16;;;36.61;26.49
22753;BME280;11543;43.144;24.684;2023-06-10T12:29:52;98133.63;;;36.63;27.13
22753;BME280;11543;43.144;24.684;2023-06-10T12:32:22;98146.72;;;36.72;26.99
22753;BME280;11543;43.144;24.684;2023-06-10T12:35:03;98142.75;;;36.73;27.12
22753;BME280;11543;43.144;24.684;2023-06-10T12:37:32;98130.63;;;36.68;26.97
22753;BME280;11543;43.144;24.684;2023-06-10T12:40:06;98125.03;;;36.27;25.62
22753;BME280;11543;43.144;24.684;2023-06-10T12:42:36;98126.34;;;36.09;26.06
22753;BME280;11543;43.144;24.684;2023-06-10T12:45:03;98136.22;;;36.27;26.82
22753;BME280;11543;43.144;24.684;2023-06-10T12:47:36;98135.38;;;36.26;27.44
22753;BME280;11543;43.144;24.684;2023-06-10T12:50:04;98129.00;;;36.26;27.46
22753;BME280;11543;43.144;24.684;2023-06-10T12:52:32;98127.34;;;36.25;28.07
22753;BME280;11543;43.144;24.684;2023-06-10T12:55:01;98122.94;;;36.24;26.98
22753;BME280;11543;43.144;24.684;2023-06-10T12:57:29;98119.31;;;36.02;26.80
22753;BME280;11543;43.144;24.684;2023-06-10T12:59:56;98106.50;;;36.01;27.34
22753;BME280;11543;43.144;24.684;2023-06-10T13:02:28;98099.56;;;36.08;26.84
22753;BME280;11543;43.144;24.684;2023-06-10T13:04:56;98100.44;;;36.20;26.89
22753;BME280;11543;43.144;24.684;2023-06-10T13:07:22;98124.66;;;36.37;27.25
22753;BME280;11543;43.144;24.684;2023-06-10T13:09:48;98099.91;;;36.27;27.73
22753;BME280;11543;43.144;24.684;2023-06-10T13:12:14;98120.66;;;36.47;27.18
22753;BME280;11543;43.144;24.684;2023-06-10T13:14:42;98114.44;;;36.41;27.12
22753;BME280;11543;43.144;24.684;2023-06-10T13:17:08;98110.88;;;36.32;26.59
22753;BME280;11543;43.144;24.684;2023-06-10T13:19:33;98128.59;;;36.36;26.03
22753;BME280;11543;43.144;24.684;2023-06-10T13:21:59;98101.53;;;36.28;26.28
22753;BME280;11543;43.144;24.684;2023-06-10T13:24:25;98113.09;;;36.47;27.17
22753;BME280;11543;43.144;24.684;2023-06-10T13:26:51;98107.88;;;36.37;26.84
22753;BME280;11543;43.144;24.684;2023-06-10T13:29:17;98105.47;;;36.27;26.44
22753;BME280;11543;43.144;24.684;2023-06-10T13:31:42;98105.41;;;36.15;27.12
22753;BME280;11543;43.144;24.684;2023-06-10T13:34:08;98122.25;;;36.27;27.91
22753;BME280;11543;43.144;24.684;2023-06-10T13:39:52;98114.69;;;36.06;27.31
22753;BME280;11543;43.144;24.684;2023-06-10T13:42:19;98111.81;;;36.15;27.07
22753;BME280;11543;43.144;24.684;2023-06-10T13:44:46;98118.13;;;36.33;26.90
22753;BME280;11543;43.144;24.684;2023-06-10T13:47:13;98111.44;;;36.46;26.17
22753;BME280;11543;43.144;24.684;2023-06-10T13:49:39;98106.38;;;36.60;26.96
22753;BME280;11543;43.144;24.684;2023-06-10T13:52:20;98091.25;;;36.61;26.34
22753;BME280;11543;43.144;24.684;2023-06-10T13:54:45;98095.53;;;36.80;27.33
22753;BME280;11543;43.144;24.684;2023-06-10T13:57:14;98098.69;;;36.90;26.85
22753;BME280;11543;43.144;24.684;2023-06-10T14:03:07;98079.13;;;36.57;28.01
22753;BME280;11543;43.144;24.684;2023-06-10T14:05:35;98074.38;;;35.95;29.29
22753;BME280;11543;43.144;24.684;2023-06-10T14:08:01;98096.50;;;35.71;30.73
22753;BME280;11543;43.144;24.684;2023-06-10T14:10:26;98083.56;;;35.28;30.77
22753;BME280;11543;43.144;24.684;2023-06-10T14:12:52;98093.31;;;35.13;31.73
22753;BME280;11543;43.144;24.684;2023-06-10T14:15:18;98084.22;;;34.87;32.13
22753;BME280;11543;43.144;24.684;2023-06-10T14:17:45;98073.25;;;34.73;32.52
22753;BME280;11543;43.144;24.684;2023-06-10T14:20:11;98090.63;;;34.70;32.66
22753;BME280;11543;43.144;24.684;2023-06-10T14:22:36;98090.28;;;34.63;31.99
22753;BME280;11543;43.144;24.684;2023-06-10T14:25:02;98066.41;;;34.45;31.43
22753;BME280;11543;43.144;24.684;2023-06-10T14:27:28;98074.25;;;34.52;31.85
22753;BME280;11543;43.144;24.684;2023-06-10T14:29:55;98058.03;;;34.28;31.86
22753;BME280;11543;43.144;24.684;2023-06-10T14:32:21;98067.22;;;34.19;31.53
22753;BME280;11543;43.144;24.684;2023-06-10T14:34:48;98071.47;;;34.17;32.28
22753;BME280;11543;43.144;24.684;2023-06-10T14:37:13;98080.16;;;34.07;32.25
22753;BME280;11543;43.144;24.684;2023-06-10T14:46:17;98067.72;;;33.87;34.31
22753;BME280;11543;43.144;24.684;2023-06-10T14:48:51;98065.69;;;33.79;34.22
22753;BME280;11543;43.144;24.684;2023-06-10T14:51:17;98061.41;;;33.73;34.47
22753;BME280;11543;43.144;24.684;2023-06-10T14:53:43;98062.72;;;33.67;33.24
22753;BME280;11543;43.144;24.684;2023-06-10T14:56:08;98069.41;;;33.57;33.69
22753;BME280;11543;43.144;24.684;2023-06-10T14:58:34;98075.44;;;33.50;33.17
22753;BME280;11543;43.144;24.684;2023-06-10T15:01:00;98079.81;;;33.34;34.55
22753;BME280;11543;43.144;24.684;2023-06-10T15:03:25;98062.72;;;33.10;34.29
22753;BME280;11543;43.144;24.684;2023-06-10T15:05:51;98065.63;;;33.05;33.18
22753;BME280;11543;43.144;24.684;2023-06-10T15:08:16;98070.69;;;33.03;34.01
22753;BME280;11543;43.144;24.684;2023-06-10T15:10:42;98070.19;;;33.01;34.12
22753;BME280;11543;43.144;24.684;2023-06-10T15:13:08;98084.25;;;33.04;34.10
22753;BME280;11543;43.144;24.684;2023-06-10T15:15:33;98069.31;;;32.91;33.81
22753;BME280;11543;43.144;24.684;2023-06-10T15:17:59;98064.78;;;32.96;33.69
22753;BME280;11543;43.144;24.684;2023-06-10T15:20:24;98070.69;;;33.03;34.24